Time;durP1;ratioP1;P1;durP2;ratioP2;P2;SDS_P1;SDS_P2;PMS_P1;PMS_P2;Temp;Humidity;BMP_temperature;BMP_pressure;BME280_temperature;BME280_humidity;BME280_pressure;Samples;Min_cycle;Max_cycle;Signal;HPM_P1;HPM_P2
2023/01/26 00:00:05;;;;;;;2.50;1.13;;;;;;;;;;5084929;28;20059;-86
2023/01/26 00:02:31;;;;;;;1.30;1.20;;;;;;;;;;5061732;28;20085;-86
2023/01/26 00:04:56;;;;;;;0.43;0.43;;;;;;;;;;5060773;28;20036;-86
2023/01/26 00:07:21;;;;;;;0.82;0.82;;;;;;;;;;5086973;28;20103;-86
2023/01/26 00:09:47;;;;;;;1.02;0.50;;;;;;;;;;5087658;28;20036;-86
2023/01/26 00:12:12;;;;;;;0.82;0.82;;;;;;;;;;5081090;28;20058;-85
2023/01/26 00:14:49;;;;;;;0.55;0.55;;;;;;;;;;5081373;28;20426;-85
2023/01/26 00:17:24;;;;;;;2.20;0.52;;;;;;;;;;5062934;28;20468;-86
2023/01/26 00:19:51;;;;;;;1.67;1.23;;;;;;;;;;5083860;28;20043;-86
2023/01/26 00:22:16;;;;;;;2.92;1.20;;;;;;;;;;5066378;28;20020;-86
2023/01/26 00:24:42;;;;;;;2.10;1.75;;;;;;;;;;5069602;28;20400;-86
2023/01/26 00:27:07;;;;;;;1.35;1.15;;;;;;;;;;5064422;28;20064;-86
2023/01/26 00:29:33;;;;;;;1.70;1.27;;;;;;;;;;5086341;28;20034;-85
2023/01/26 00:31:58;;;;;;;0.82;0.82;;;;;;;;;;5083642;28;20036;-85
2023/01/26 00:34:24;;;;;;;2.45;1.60;;;;;;;;;;5064809;28;20070;-87
2023/01/26 00:36:49;;;;;;;4.22;1.70;;;;;;;;;;5067559;28;20025;-85
2023/01/26 00:39:14;;;;;;;1.38;1.27;;;;;;;;;;5057191;28;20476;-86
2023/01/26 00:44:24;;;;;;;1.38;1.27;;;;;;;;;;5072616;28;20086;-85
2023/01/26 00:46:49;;;;;;;1.15;1.02;;;;;;;;;;5086069;28;20433;-86
2023/01/26 00:49:14;;;;;;;1.45;0.90;;;;;;;;;;5070881;28;20108;-85
2023/01/26 00:51:40;;;;;;;2.75;1.75;;;;;;;;;;5080920;28;20027;-85
2023/01/26 00:54:05;;;;;;;0.52;0.52;;;;;;;;;;5064136;28;20051;-86
2023/01/26 00:56:30;;;;;;;6.35;1.63;;;;;;;;;;5084551;28;20024;-85
2023/01/26 00:58:56;;;;;;;0.60;0.60;;;;;;;;;;5086202;28;20051;-83
2023/01/26 01:01:21;;;;;;;2.65;1.58;;;;;;;;;;5075216;28;20060;-83
2023/01/26 01:03:49;;;;;;;2.00;1.35;;;;;;;;;;5092380;28;20029;-82
2023/01/26 01:06:14;;;;;;;0.68;0.68;;;;;;;;;;5081660;28;20021;-84
2023/01/26 01:08:40;;;;;;;1.70;0.85;;;;;;;;;;5091455;28;20016;-83
2023/01/26 01:11:10;;;;;;;1.52;1.38;;;;;;;;;;5087738;28;20048;-83
2023/01/26 01:13:35;;;;;;;1.75;1.17;;;;;;;;;;5061206;28;20021;-84
2023/01/26 01:16:12;;;;;;;0.95;0.95;;;;;;;;;;5068434;28;20031;-84
2023/01/26 01:18:38;;;;;;;0.90;0.90;;;;;;;;;;5085044;28;20082;-83
2023/01/26 01:21:08;;;;;;;2.08;0.75;;;;;;;;;;5087667;28;20031;-83
2023/01/26 01:23:34;;;;;;;1.15;1.02;;;;;;;;;;5073746;28;20051;-84
2023/01/26 01:26:00;;;;;;;4.78;1.80;;;;;;;;;;5083315;28;20052;-84
2023/01/26 01:28:25;;;;;;;1.10;1.05;;;;;;;;;;5084236;28;20024;-84
2023/01/26 01:30:50;;;;;;;0.63;0.63;;;;;;;;;;5061557;28;20123;-83
2023/01/26 01:33:16;;;;;;;1.50;1.30;;;;;;;;;;5061841;28;20031;-84
2023/01/26 01:35:41;;;;;;;2.67;1.65;;;;;;;;;;5068464;28;20029;-83
2023/01/26 01:38:07;;;;;;;0.65;0.65;;;;;;;;;;5081246;28;20062;-84
2023/01/26 01:40:32;;;;;;;1.65;1.45;;;;;;;;;;5086872;28;20035;-83
2023/01/26 01:42:57;;;;;;;5.00;1.75;;;;;;;;;;5062882;28;20453;-83
2023/01/26 01:45:26;;;;;;;2.50;1.48;;;;;;;;;;5087956;28;20050;-83
2023/01/26 01:47:57;;;;;;;3.40;2.45;;;;;;;;;;5064780;28;20469;-82
2023/01/26 01:50:24;;;;;;;4.07;1.33;;;;;;;;;;5082973;28;20081;-84
2023/01/26 01:52:51;;;;;;;2.33;1.45;;;;;;;;;;5079297;28;20050;-82
2023/01/26 01:55:16;;;;;;;1.75;0.80;;;;;;;;;;5080113;28;20020;-83
2023/01/26 01:57:50;;;;;;;1.83;1.73;;;;;;;;;;5065286;28;20031;-83
2023/01/26 02:00:19;;;;;;;1.67;1.23;;;;;;;;;;5082696;28;20024;-85
2023/01/26 02:03:09;;;;;;;1.40;1.30;;;;;;;;;;5067150;28;20035;-85
2023/01/26 02:05:57;;;;;;;3.03;1.30;;;;;;;;;;5088527;28;20020;-85
2023/01/26 02:08:43;;;;;;;1.63;1.52;;;;;;;;;;5057351;28;20044;-85
2023/01/26 02:11:17;;;;;;;1.83;1.65;;;;;;;;;;5070190;28;20078;-85
2023/01/26 02:13:48;;;;;;;1.02;1.02;;;;;;;;;;5071636;28;20025;-84
2023/01/26 02:16:15;;;;;;;1.45;1.35;;;;;;;;;;5074563;28;20468;-83
2023/01/26 02:18:40;;;;;;;2.10;1.08;;;;;;;;;;5061032;28;20161;-83
2023/01/26 02:21:09;;;;;;;0.85;0.82;;;;;;;;;;5063319;28;20044;-84
2023/01/26 02:24:10;;;;;;;0.90;0.85;;;;;;;;;;5083114;28;20029;-82
2023/01/26 02:26:36;;;;;;;3.53;1.92;;;;;;;;;;5063779;28;20491;-85
2023/01/26 02:29:07;;;;;;;2.75;1.52;;;;;;;;;;5079325;28;20107;-83
2023/01/26 02:31:32;;;;;;;2.92;2.60;;;;;;;;;;5065856;28;20486;-84
2023/01/26 02:33:58;;;;;;;2.05;1.25;;;;;;;;;;5063231;28;20063;-84
2023/01/26 02:36:29;;;;;;;2.17;2.08;;;;;;;;;;5067835;28;20055;-83
2023/01/26 02:38:54;;;;;;;5.68;1.80;;;;;;;;;;5081108;28;20024;-83
2023/01/26 02:44:07;;;;;;;0.73;0.73;;;;;;;;;;5089379;28;20043;-83
2023/01/26 02:46:33;;;;;;;6.03;1.73;;;;;;;;;;5080364;28;20031;-83
2023/01/26 02:51:42;;;;;;;1.83;1.05;;;;;;;;;;5079283;28;20042;-83
2023/01/26 02:54:07;;;;;;;5.72;1.38;;;;;;;;;;5084042;28;20691;-83
2023/01/26 02:56:38;;;;;;;1.30;1.17;;;;;;;;;;5060789;28;20020;-83
2023/01/26 02:59:04;;;;;;;0.40;0.40;;;;;;;;;;5082356;28;20116;-83
2023/01/26 03:01:29;;;;;;;1.05;1.00;;;;;;;;;;5082902;28;20048;-84
2023/01/26 03:04:01;;;;;;;1.20;1.00;;;;;;;;;;5083786;28;20039;-85
2023/01/26 03:06:26;;;;;;;1.00;1.00;;;;;;;;;;5066051;28;20020;-84
2023/01/26 03:08:51;;;;;;;2.30;0.90;;;;;;;;;;5065755;28;20366;-84
2023/01/26 03:11:20;;;;;;;1.80;1.35;;;;;;;;;;5062188;28;20012;-86
2023/01/26 03:13:45;;;;;;;0.57;0.57;;;;;;;;;;5066948;28;20464;-84
2023/01/26 03:16:11;;;;;;;0.95;0.80;;;;;;;;;;5084106;28;20024;-84
2023/01/26 03:29:33;;;;;;;0.60;0.60;;;;;;;;;;5079684;28;20026;-84
2023/01/26 03:31:59;;;;;;;0.40;0.40;;;;;;;;;;5063031;28;20411;-84
2023/01/26 03:34:25;;;;;;;5.15;1.48;;;;;;;;;;5083974;28;20028;-84
2023/01/26 03:36:50;;;;;;;1.55;1.27;;;;;;;;;;5065071;28;20108;-82
2023/01/26 03:58:34;;;;;;;1.35;1.15;;;;;;;;;;5082871;28;20412;-83
2023/01/26 04:00:59;;;;;;;0.82;0.73;;;;;;;;;;5063926;28;20025;-82
2023/01/26 04:08:52;;;;;;;2.78;0.95;;;;;;;;;;5080121;28;20089;-83
2023/01/26 04:11:18;;;;;;;0.43;0.43;;;;;;;;;;5063813;28;20028;-83
2023/01/26 04:21:55;;;;;;;1.00;0.90;;;;;;;;;;5082096;28;20502;-84
2023/01/26 04:24:21;;;;;;;1.30;1.13;;;;;;;;;;5070017;28;20076;-83
2023/01/26 04:26:47;;;;;;;1.55;1.45;;;;;;;;;;5082253;28;20128;-83
2023/01/26 04:29:14;;;;;;;0.60;0.60;;;;;;;;;;5084137;28;20059;-84
2023/01/26 04:31:41;;;;;;;1.27;1.23;;;;;;;;;;5083301;28;20031;-83
2023/01/26 04:34:11;;;;;;;3.22;1.90;;;;;;;;;;5071668;28;20020;-84
2023/01/26 04:36:37;;;;;;;0.75;0.75;;;;;;;;;;5085330;28;20028;-83
2023/01/26 04:39:02;;;;;;;5.55;1.25;;;;;;;;;;5088813;28;20108;-84
2023/01/26 04:41:29;;;;;;;1.73;0.73;;;;;;;;;;5084982;28;20028;-83
2023/01/26 04:43:55;;;;;;;3.17;1.30;;;;;;;;;;5083831;28;20016;-82
2023/01/26 04:46:20;;;;;;;0.75;0.75;;;;;;;;;;5088192;28;20365;-81
2023/01/26 04:48:46;;;;;;;1.13;1.02;;;;;;;;;;5087340;28;20024;-82
2023/01/26 04:51:15;;;;;;;1.83;1.33;;;;;;;;;;5069935;28;20115;-82
2023/01/26 04:53:42;;;;;;;1.02;1.02;;;;;;;;;;5061606;28;20032;-82
2023/01/26 04:56:19;;;;;;;1.67;1.50;;;;;;;;;;5090777;28;20103;-82
2023/01/26 04:58:44;;;;;;;0.75;0.75;;;;;;;;;;5089875;28;20031;-80
2023/01/26 05:01:09;;;;;;;1.13;1.08;;;;;;;;;;5080376;28;20424;-83
2023/01/26 05:03:35;;;;;;;1.80;1.02;;;;;;;;;;5089163;28;20031;-82
2023/01/26 05:06:00;;;;;;;1.10;0.65;;;;;;;;;;5067386;28;20434;-86
2023/01/26 05:08:26;;;;;;;1.23;1.10;;;;;;;;;;5084322;28;20024;-84
2023/01/26 05:10:51;;;;;;;1.15;1.02;;;;;;;;;;5066012;28;20065;-86
2023/01/26 05:13:17;;;;;;;4.88;2.25;;;;;;;;;;5066802;28;20025;-86
2023/01/26 05:15:42;;;;;;;2.55;0.80;;;;;;;;;;5083267;28;20028;-84
2023/01/26 05:18:08;;;;;;;1.70;1.60;;;;;;;;;;5072225;28;20031;-84
2023/01/26 05:20:34;;;;;;;0.52;0.52;;;;;;;;;;5067380;28;20028;-83
2023/01/26 05:22:59;;;;;;;3.08;1.88;;;;;;;;;;5083289;28;20048;-84
2023/01/26 05:25:24;;;;;;;1.30;1.17;;;;;;;;;;5069407;28;20048;-84
2023/01/26 05:27:51;;;;;;;0.63;0.57;;;;;;;;;;5062737;28;20089;-84
2023/01/26 05:30:17;;;;;;;1.48;0.77;;;;;;;;;;5064287;28;20126;-84
2023/01/26 05:32:42;;;;;;;1.27;0.82;;;;;;;;;;5085144;28;20034;-85
2023/01/26 05:35:08;;;;;;;0.75;0.75;;;;;;;;;;5063252;28;20027;-85
2023/01/26 05:37:33;;;;;;;1.13;1.13;;;;;;;;;;5069561;28;20069;-85
2023/01/26 05:39:59;;;;;;;1.08;1.08;;;;;;;;;;5080901;28;20051;-83
2023/01/26 05:42:25;;;;;;;0.30;0.30;;;;;;;;;;5064505;28;20038;-83
2023/01/26 05:44:51;;;;;;;3.33;1.13;;;;;;;;;;5064304;28;20028;-87
2023/01/26 05:47:17;;;;;;;2.92;2.03;;;;;;;;;;5086072;28;20032;-87
2023/01/26 05:49:44;;;;;;;1.40;1.27;;;;;;;;;;5082617;28;20081;-85
2023/01/26 05:52:19;;;;;;;1.00;0.90;;;;;;;;;;5093435;28;20042;-84
2023/01/26 05:54:45;;;;;;;1.55;0.70;;;;;;;;;;5083626;28;20031;-85
2023/01/26 05:57:12;;;;;;;0.25;0.25;;;;;;;;;;5060033;28;20393;-84
2023/01/26 05:59:37;;;;;;;1.08;1.00;;;;;;;;;;5064887;28;20017;-86
2023/01/26 06:02:03;;;;;;;0.60;0.60;;;;;;;;;;5069651;28;20028;-86
2023/01/26 06:04:29;;;;;;;0.70;0.65;;;;;;;;;;5068083;28;20069;-87
2023/01/26 06:06:56;;;;;;;1.40;1.23;;;;;;;;;;5062165;28;20428;-86
2023/01/26 06:09:21;;;;;;;2.28;1.08;;;;;;;;;;5064647;28;20068;-86
2023/01/26 06:11:48;;;;;;;1.83;1.15;;;;;;;;;;5064938;28;20063;-86
2023/01/26 06:14:13;;;;;;;3.40;1.27;;;;;;;;;;5082510;28;20035;-87
2023/01/26 06:16:39;;;;;;;1.42;1.33;;;;;;;;;;5084825;28;20094;-84
2023/01/26 06:19:05;;;;;;;1.27;1.15;;;;;;;;;;5064872;28;20107;-85
2023/01/26 06:21:31;;;;;;;5.20;1.67;;;;;;;;;;5083159;28;20025;-83
2023/01/26 06:23:57;;;;;;;3.83;1.67;;;;;;;;;;5080431;28;20048;-87
2023/01/26 06:26:23;;;;;;;1.83;1.67;;;;;;;;;;5065075;28;20400;-85
2023/01/26 06:28:49;;;;;;;1.88;1.77;;;;;;;;;;5083264;28;20032;-84
2023/01/26 06:31:15;;;;;;;1.10;0.88;;;;;;;;;;5081602;28;20079;-82
2023/01/26 06:33:40;;;;;;;1.25;1.15;;;;;;;;;;5063786;28;20052;-84
2023/01/26 06:36:09;;;;;;;1.67;1.42;;;;;;;;;;5080178;28;20059;-83
2023/01/26 06:38:34;;;;;;;1.63;1.38;;;;;;;;;;5062346;28;20076;-85
2023/01/26 06:41:01;;;;;;;2.97;1.77;;;;;;;;;;5063290;28;20032;-86
2023/01/26 06:43:29;;;;;;;0.93;0.93;;;;;;;;;;5077933;28;20475;-86
2023/01/26 06:45:56;;;;;;;1.55;1.45;;;;;;;;;;5084731;28;20107;-85
2023/01/26 06:48:22;;;;;;;2.75;1.85;;;;;;;;;;5080760;28;20028;-85
2023/01/26 06:50:50;;;;;;;2.60;1.75;;;;;;;;;;5080263;28;20378;-85
2023/01/26 06:53:29;;;;;;;4.05;2.53;;;;;;;;;;5068772;28;20498;-84
2023/01/26 06:55:54;;;;;;;0.73;0.67;;;;;;;;;;5061688;28;20024;-85
2023/01/26 06:58:20;;;;;;;1.23;1.13;;;;;;;;;;5082087;28;20389;-84
2023/01/26 07:00:45;;;;;;;6.13;1.77;;;;;;;;;;5082619;28;20391;-83
2023/01/26 07:03:10;;;;;;;2.13;1.77;;;;;;;;;;5062222;28;20032;-82
2023/01/26 07:05:36;;;;;;;3.05;2.03;;;;;;;;;;5079879;28;20435;-83
2023/01/26 07:08:03;;;;;;;2.53;2.08;;;;;;;;;;5077435;28;20106;-83
2023/01/26 07:10:29;;;;;;;3.10;1.77;;;;;;;;;;5063255;28;20028;-82
2023/01/26 07:12:54;;;;;;;3.63;1.88;;;;;;;;;;5061618;28;20391;-82
2023/01/26 07:15:20;;;;;;;5.75;2.20;;;;;;;;;;5082572;28;20080;-82
2023/01/26 07:17:45;;;;;;;2.45;1.75;;;;;;;;;;5068729;28;22005;-82
2023/01/26 07:20:10;;;;;;;4.57;2.17;;;;;;;;;;5079988;28;20024;-82
2023/01/26 07:22:36;;;;;;;2.25;1.35;;;;;;;;;;5076644;28;20030;-84
2023/01/26 07:25:01;;;;;;;5.28;1.65;;;;;;;;;;5059527;28;20055;-82
2023/01/26 07:27:27;;;;;;;5.10;1.70;;;;;;;;;;5082818;28;20434;-82
2023/01/26 07:29:52;;;;;;;1.30;1.20;;;;;;;;;;5077681;28;20024;-82
2023/01/26 07:32:17;;;;;;;2.05;1.83;;;;;;;;;;5063241;28;20020;-84
2023/01/26 07:34:43;;;;;;;2.03;1.75;;;;;;;;;;5062383;28;20024;-85
2023/01/26 07:37:08;;;;;;;0.55;0.55;;;;;;;;;;5082114;28;20107;-82
2023/01/26 07:39:34;;;;;;;3.30;2.00;;;;;;;;;;5080338;28;20028;-84
2023/01/26 07:41:59;;;;;;;2.88;2.08;;;;;;;;;;5065265;28;20025;-84
2023/01/26 07:44:24;;;;;;;1.02;0.90;;;;;;;;;;5060722;28;20047;-83
2023/01/26 07:46:50;;;;;;;2.20;1.15;;;;;;;;;;5061812;28;20391;-82
2023/01/26 07:49:15;;;;;;;1.92;1.70;;;;;;;;;;5079599;28;20032;-87
2023/01/26 07:51:41;;;;;;;2.97;1.50;;;;;;;;;;5062247;28;20115;-86
2023/01/26 07:54:09;;;;;;;1.80;1.67;;;;;;;;;;5083952;28;20017;-86
2023/01/26 07:56:35;;;;;;;1.05;0.88;;;;;;;;;;5059442;28;20028;-90
2023/01/26 07:59:00;;;;;;;2.72;1.48;;;;;;;;;;5067710;28;20041;-84
2023/01/26 08:01:26;;;;;;;1.23;0.95;;;;;;;;;;5088532;28;20047;-84
2023/01/26 08:03:52;;;;;;;2.28;1.30;;;;;;;;;;5084311;28;20104;-84
2023/01/26 08:06:18;;;;;;;2.28;2.00;;;;;;;;;;5069606;28;20024;-86
2023/01/26 08:08:45;;;;;;;9.88;4.80;;;;;;;;;;5083903;28;20028;-87
2023/01/26 08:11:11;;;;;;;3.35;2.38;;;;;;;;;;5065632;28;20461;-83
2023/01/26 08:13:36;;;;;;;1.33;1.23;;;;;;;;;;5091267;28;20073;-84
2023/01/26 08:16:09;;;;;;;1.52;1.10;;;;;;;;;;5079986;28;20391;-83
2023/01/26 08:18:35;;;;;;;0.73;0.73;;;;;;;;;;5064790;28;20024;-85
2023/01/26 08:21:00;;;;;;;1.52;1.42;;;;;;;;;;5068798;28;20055;-85
2023/01/26 08:23:26;;;;;;;2.95;1.70;;;;;;;;;;5065422;28;20080;-82
2023/01/26 08:25:51;;;;;;;1.70;1.60;;;;;;;;;;5078085;28;20044;-85
2023/01/26 08:28:17;;;;;;;1.48;1.30;;;;;;;;;;5081218;28;20478;-83
2023/01/26 08:30:42;;;;;;;1.77;1.50;;;;;;;;;;5087365;28;20028;-84
2023/01/26 08:33:08;;;;;;;4.30;2.63;;;;;;;;;;5077296;28;20051;-85
2023/01/26 08:35:33;;;;;;;1.55;0.82;;;;;;;;;;5081384;28;20027;-85
2023/01/26 08:37:59;;;;;;;1.98;1.35;;;;;;;;;;5078994;28;20554;-84
2023/01/26 08:40:25;;;;;;;1.80;1.38;;;;;;;;;;5077531;28;20103;-85
2023/01/26 08:42:51;;;;;;;3.65;2.08;;;;;;;;;;5084069;28;20461;-85
2023/01/26 08:45:16;;;;;;;3.28;2.10;;;;;;;;;;5058320;28;20047;-85
2023/01/26 08:47:41;;;;;;;2.78;1.48;;;;;;;;;;5081177;28;20480;-84
2023/01/26 08:50:08;;;;;;;2.97;1.30;;;;;;;;;;5061584;28;20119;-85
2023/01/26 08:52:34;;;;;;;2.13;1.48;;;;;;;;;;5079684;28;20024;-84
2023/01/26 08:55:00;;;;;;;2.97;2.30;;;;;;;;;;5065133;28;20031;-82
2023/01/26 08:57:26;;;;;;;1.00;1.00;;;;;;;;;;5061169;28;20081;-82
2023/01/26 08:59:51;;;;;;;1.23;1.02;;;;;;;;;;5084385;28;20036;-82
2023/01/26 09:02:17;;;;;;;0.55;0.55;;;;;;;;;;5081220;28;20026;-82
2023/01/26 09:04:44;;;;;;;1.63;1.30;;;;;;;;;;5081342;28;20024;-83
2023/01/26 09:07:09;;;;;;;3.33;1.73;;;;;;;;;;5066993;28;20430;-84
2023/01/26 09:09:35;;;;;;;0.85;0.80;;;;;;;;;;5083816;28;20100;-84
2023/01/26 09:12:00;;;;;;;1.13;1.05;;;;;;;;;;5084608;28;20115;-84
2023/01/26 09:14:27;;;;;;;1.50;1.13;;;;;;;;;;5084246;28;20025;-83
2023/01/26 09:16:52;;;;;;;0.77;0.65;;;;;;;;;;5082094;28;20476;-84
2023/01/26 09:19:18;;;;;;;1.30;0.90;;;;;;;;;;5068493;28;20157;-83
2023/01/26 09:21:43;;;;;;;2.00;1.58;;;;;;;;;;5093354;28;20023;-84
2023/01/26 09:24:09;;;;;;;1.27;1.20;;;;;;;;;;5081720;28;20055;-85
2023/01/26 09:26:35;;;;;;;3.55;1.20;;;;;;;;;;5069880;28;20451;-84
2023/01/26 09:29:01;;;;;;;2.55;0.98;;;;;;;;;;5088127;28;20039;-85
2023/01/26 09:31:26;;;;;;;1.55;1.00;;;;;;;;;;5061601;28;20027;-84
2023/01/26 09:33:52;;;;;;;3.42;1.77;;;;;;;;;;5066574;28;20031;-84
2023/01/26 09:36:17;;;;;;;3.22;1.35;;;;;;;;;;5069598;28;20020;-86
2023/01/26 09:38:43;;;;;;;0.95;0.90;;;;;;;;;;5065012;28;20023;-84
2023/01/26 09:41:33;;;;;;;4.03;2.63;;;;;;;;;;5066162;28;20081;-84
2023/01/26 09:44:09;;;;;;;2.00;1.52;;;;;;;;;;5066588;28;20032;-87
2023/01/26 09:46:43;;;;;;;2.38;1.52;;;;;;;;;;5079917;28;20029;-85
2023/01/26 09:49:22;;;;;;;1.25;1.17;;;;;;;;;;5083822;28;20468;-85
2023/01/26 09:51:59;;;;;;;1.63;1.07;;;;;;;;;;5087748;28;20039;-85
2023/01/26 09:54:43;;;;;;;2.95;1.98;;;;;;;;;;5065658;28;20028;-87
2023/01/26 09:57:14;;;;;;;1.00;0.93;;;;;;;;;;5085282;28;20016;-84
2023/01/26 09:59:42;;;;;;;1.10;0.80;;;;;;;;;;5065797;28;20434;-85
2023/01/26 10:02:29;;;;;;;2.55;1.77;;;;;;;;;;5065253;28;20104;-84
2023/01/26 10:05:00;;;;;;;3.80;2.05;;;;;;;;;;5082249;28;20040;-84
2023/01/26 10:07:25;;;;;;;1.90;0.80;;;;;;;;;;5081869;28;20028;-86
2023/01/26 10:09:52;;;;;;;3.83;1.58;;;;;;;;;;5070497;28;20035;-86
2023/01/26 10:12:25;;;;;;;1.80;1.63;;;;;;;;;;5064778;28;20024;-84
2023/01/26 10:15:01;;;;;;;2.65;1.80;;;;;;;;;;5062065;28;20036;-85
2023/01/26 10:17:42;;;;;;;1.15;1.05;;;;;;;;;;5080308;28;20020;-85
2023/01/26 10:20:11;;;;;;;0.73;0.73;;;;;;;;;;5063934;28;20463;-84
2023/01/26 10:22:51;;;;;;;2.28;1.23;;;;;;;;;;5061129;28;20036;-84
2023/01/26 10:25:36;;;;;;;0.52;0.52;;;;;;;;;;5079599;28;20049;-84
2023/01/26 10:28:24;;;;;;;2.38;1.90;;;;;;;;;;5065977;28;20035;-85
2023/01/26 10:30:50;;;;;;;1.10;1.00;;;;;;;;;;5065472;28;20435;-88
2023/01/26 10:33:23;;;;;;;3.08;0.90;;;;;;;;;;5083981;28;20032;-86
2023/01/26 10:35:49;;;;;;;1.50;1.40;;;;;;;;;;5063392;28;20116;-87
2023/01/26 10:38:31;;;;;;;1.27;1.10;;;;;;;;;;5081883;28;20452;-85
2023/01/26 10:41:00;;;;;;;3.70;1.52;;;;;;;;;;5081912;28;20419;-84
2023/01/26 10:43:25;;;;;;;2.10;1.40;;;;;;;;;;5065806;28;20020;-86
2023/01/26 10:45:51;;;;;;;2.28;1.65;;;;;;;;;;5083175;28;20012;-84
2023/01/26 10:48:17;;;;;;;1.60;1.17;;;;;;;;;;5060539;28;20039;-80
2023/01/26 10:50:44;;;;;;;2.65;1.27;;;;;;;;;;5083724;28;20391;-84
2023/01/26 10:53:15;;;;;;;2.97;1.98;;;;;;;;;;5082326;28;20118;-82
2023/01/26 10:55:41;;;;;;;1.27;1.05;;;;;;;;;;5078998;28;20044;-83
2023/01/26 10:58:52;;;;;;;1.58;1.48;;;;;;;;;;5081830;28;20127;-84
2023/01/26 11:01:21;;;;;;;1.20;1.10;;;;;;;;;;5076297;28;20111;-83
2023/01/26 11:04:14;;;;;;;1.70;1.33;;;;;;;;;;5079086;28;20035;-84
2023/01/26 11:06:39;;;;;;;0.63;0.63;;;;;;;;;;5057781;28;20058;-85
2023/01/26 11:09:19;;;;;;;2.50;1.75;;;;;;;;;;5078209;28;20376;-84
2023/01/26 11:11:56;;;;;;;0.80;0.80;;;;;;;;;;5076525;28;20020;-84
2023/01/26 11:14:22;;;;;;;2.63;1.63;;;;;;;;;;5056433;28;20035;-84
2023/01/26 11:17:04;;;;;;;2.95;2.03;;;;;;;;;;5078924;28;20040;-85
2023/01/26 11:19:39;;;;;;;0.85;0.85;;;;;;;;;;5064384;28;20094;-84
2023/01/26 11:22:08;;;;;;;1.90;1.33;;;;;;;;;;5056741;28;20020;-84
2023/01/26 11:24:38;;;;;;;1.52;1.10;;;;;;;;;;5082898;28;20036;-88
2023/01/26 11:27:26;;;;;;;1.90;1.15;;;;;;;;;;5076257;28;20041;-87
2023/01/26 11:30:01;;;;;;;1.02;0.93;;;;;;;;;;5065462;28;20471;-88
2023/01/26 11:32:52;;;;;;;2.70;1.10;;;;;;;;;;5085108;28;20031;-86
2023/01/26 11:35:27;;;;;;;1.83;1.60;;;;;;;;;;5064059;28;20460;-88
2023/01/26 11:38:37;;;;;;;3.15;1.13;;;;;;;;;;5076638;28;20421;-85
2023/01/26 11:41:27;;;;;;;0.65;0.65;;;;;;;;;;5045025;28;20395;-88
2023/01/26 11:44:08;;;;;;;;;;;;;;;;;;5064201;28;20036;-88
2023/01/26 11:46:52;;;;;;;2.17;1.65;;;;;;;;;;5075580;28;19916;-87
2023/01/26 11:49:26;;;;;;;1.17;1.08;;;;;;;;;;5062802;28;20109;-86
2023/01/26 11:52:22;;;;;;;0.70;0.70;;;;;;;;;;5083726;28;20032;-83
2023/01/26 11:55:05;;;;;;;0.82;0.80;;;;;;;;;;5080231;28;20036;-86
2023/01/26 11:58:05;;;;;;;0.75;0.70;;;;;;;;;;5065461;28;20016;-85
2023/01/26 12:00:39;;;;;;;2.28;1.35;;;;;;;;;;5055451;28;20042;-86
2023/01/26 12:03:23;;;;;;;2.65;1.10;;;;;;;;;;5061763;28;20028;-86
2023/01/26 12:05:56;;;;;;;0.65;0.65;;;;;;;;;;5079609;28;20032;-85
2023/01/26 12:08:37;;;;;;;0.80;0.80;;;;;;;;;;5058147;28;20380;-85
2023/01/26 12:11:35;;;;;;;2.50;1.20;;;;;;;;;;5061317;28;20048;-87
2023/01/26 12:14:34;;;;;;;0.60;0.60;;;;;;;;;;5062840;28;20040;-86
2023/01/26 12:17:21;;;;;;;1.45;1.27;;;;;;;;;;5059168;28;20029;-86
2023/01/26 12:20:03;;;;;;;1.00;0.88;;;;;;;;;;5065239;28;20051;-86
2023/01/26 12:22:36;;;;;;;2.00;1.20;;;;;;;;;;5076281;28;20059;-84
2023/01/26 12:25:05;;;;;;;5.03;1.42;;;;;;;;;;5082504;28;20052;-87
2023/01/26 12:27:35;;;;;;;;;;;;;;;;;;5079558;28;20033;-85
2023/01/26 12:30:24;;;;;;;1.02;1.00;;;;;;;;;;5078454;28;20002;-85
2023/01/26 12:32:50;;;;;;;1.07;1.07;;;;;;;;;;5043439;28;20131;-87
2023/01/26 12:35:27;;;;;;;2.72;1.73;;;;;;;;;;5080867;28;20033;-87
2023/01/26 12:38:05;;;;;;;2.45;1.55;;;;;;;;;;5059698;28;20605;-85
2023/01/26 12:40:48;;;;;;;1.63;1.33;;;;;;;;;;5077260;28;20449;-86
2023/01/26 12:43:35;;;;;;;1.38;1.27;;;;;;;;;;5078576;28;20086;-84
2023/01/26 12:46:03;;;;;;;1.83;1.70;;;;;;;;;;5085146;28;20024;-85
2023/01/26 12:48:42;;;;;;;4.53;1.38;;;;;;;;;;5065052;28;20031;-85
2023/01/26 12:51:13;;;;;;;2.00;1.77;;;;;;;;;;5077178;28;20032;-85
2023/01/26 12:53:50;;;;;;;1.77;1.67;;;;;;;;;;5063931;28;20265;-84
2023/01/26 12:56:28;;;;;;;4.82;1.90;;;;;;;;;;5077298;28;20025;-86
2023/01/26 12:58:57;;;;;;;2.53;1.65;;;;;;;;;;5082366;28;20038;-84
2023/01/26 13:01:25;;;;;;;2.03;1.45;;;;;;;;;;5086371;28;20025;-86
2023/01/26 13:03:57;;;;;;;1.70;1.60;;;;;;;;;;5083667;28;20036;-86
2023/01/26 13:06:27;;;;;;;3.63;2.13;;;;;;;;;;5078508;28;20035;-86
2023/01/26 13:09:14;;;;;;;3.05;2.00;;;;;;;;;;5080137;28;20063;-89
2023/01/26 13:11:57;;;;;;;0.95;0.95;;;;;;;;;;5072779;28;20468;-88
2023/01/26 13:14:43;;;;;;;2.65;2.17;;;;;;;;;;5066110;28;20032;-87
2023/01/26 13:17:15;;;;;;;2.45;2.25;;;;;;;;;;5064248;28;20058;-87
2023/01/26 13:19:40;;;;;;;1.63;1.52;;;;;;;;;;5063568;28;20074;-87
2023/01/26 13:22:39;;;;;;;3.50;2.15;;;;;;;;;;5082119;28;20020;-87
2023/01/26 13:25:23;;;;;;;1.85;1.55;;;;;;;;;;5056726;28;20040;-86
2023/01/26 13:28:00;;;;;;;1.70;1.60;;;;;;;;;;5065399;28;20055;-86
2023/01/26 13:30:25;;;;;;;3.15;1.65;;;;;;;;;;5063233;28;20031;-86
2023/01/26 13:33:07;;;;;;;3.40;2.45;;;;;;;;;;5080546;28;20039;-88
2023/01/26 13:35:34;;;;;;;2.30;1.55;;;;;;;;;;5083993;28;20499;-89
2023/01/26 13:38:33;;;;;;;6.10;1.85;;;;;;;;;;5064698;28;20535;-88
2023/01/26 13:40:59;;;;;;;1.45;1.35;;;;;;;;;;5071755;28;20089;-86
2023/01/26 13:43:36;;;;;;;2.15;1.75;;;;;;;;;;5082834;28;20822;-87
2023/01/26 13:46:07;;;;;;;2.40;1.33;;;;;;;;;;5062679;28;20048;-85
2023/01/26 13:48:38;;;;;;;1.00;1.00;;;;;;;;;;5062302;28;20028;-88
2023/01/26 13:51:04;;;;;;;2.03;1.13;;;;;;;;;;5065842;28;20476;-86
2023/01/26 13:53:42;;;;;;;2.05;1.85;;;;;;;;;;5079167;28;20023;-87
2023/01/26 13:56:28;;;;;;;1.52;1.33;;;;;;;;;;5083209;28;20020;-86
2023/01/26 13:59:02;;;;;;;0.73;0.70;;;;;;;;;;5081250;28;20043;-86
2023/01/26 14:01:28;;;;;;;3.38;2.10;;;;;;;;;;5080062;28;20039;-88
2023/01/26 14:04:06;;;;;;;2.97;1.58;;;;;;;;;;5078397;28;20102;-85
2023/01/26 14:06:36;;;;;;;1.63;0.80;;;;;;;;;;5086354;28;20023;-84
2023/01/26 14:09:03;;;;;;;6.53;2.15;;;;;;;;;;5083120;28;20032;-85
2023/01/26 14:11:31;;;;;;;1.45;1.33;;;;;;;;;;5084192;28;20029;-84
2023/01/26 14:13:59;;;;;;;1.40;1.27;;;;;;;;;;5083279;28;20142;-83
2023/01/26 14:16:31;;;;;;;2.45;1.45;;;;;;;;;;5083550;28;20093;-82
2023/01/26 14:19:13;;;;;;;1.52;1.42;;;;;;;;;;5059422;28;20028;-82
2023/01/26 14:21:57;;;;;;;1.52;1.42;;;;;;;;;;5063061;28;20081;-83
2023/01/26 14:24:41;;;;;;;3.90;2.35;;;;;;;;;;5081074;28;20047;-86
2023/01/26 14:27:35;;;;;;;3.20;1.50;;;;;;;;;;5061040;28;20111;-81
2023/01/26 14:30:07;;;;;;;1.20;1.00;;;;;;;;;;5055934;28;20066;-83
2023/01/26 14:32:36;;;;;;;1.48;1.17;;;;;;;;;;5067152;28;20055;-83
2023/01/26 14:35:01;;;;;;;1.20;1.08;;;;;;;;;;5064056;28;20028;-82
2023/01/26 14:37:27;;;;;;;3.17;1.42;;;;;;;;;;5065702;28;20034;-82
2023/01/26 14:40:14;;;;;;;0.85;0.85;;;;;;;;;;5082671;28;20036;-83
2023/01/26 14:42:41;;;;;;;1.60;1.38;;;;;;;;;;5063125;28;20024;-81
2023/01/26 14:45:12;;;;;;;1.40;1.08;;;;;;;;;;5086619;28;20107;-82
2023/01/26 14:47:39;;;;;;;1.88;1.17;;;;;;;;;;5066175;28;20089;-82
2023/01/26 14:50:10;;;;;;;1.40;0.80;;;;;;;;;;5056674;28;20028;-82
2023/01/26 14:52:38;;;;;;;1.35;1.25;;;;;;;;;;5067453;28;20111;-82
2023/01/26 14:55:11;;;;;;;0.52;0.52;;;;;;;;;;5082705;28;20360;-81
2023/01/26 14:57:38;;;;;;;1.17;1.08;;;;;;;;;;5082407;28;20031;-84
2023/01/26 15:00:08;;;;;;;1.60;1.50;;;;;;;;;;5060188;28;20024;-82
2023/01/26 15:02:42;;;;;;;2.83;1.20;;;;;;;;;;5067252;28;20368;-83
2023/01/26 15:05:19;;;;;;;2.67;1.98;;;;;;;;;;5063114;28;20027;-84
2023/01/26 15:07:54;;;;;;;3.05;1.70;;;;;;;;;;5082374;28;20028;-82
2023/01/26 15:10:50;;;;;;;2.40;1.40;;;;;;;;;;5065708;28;20028;-82
2023/01/26 15:13:15;;;;;;;0.65;0.45;;;;;;;;;;5063238;28;20028;-84
2023/01/26 15:15:49;;;;;;;2.95;0.88;;;;;;;;;;5062484;28;20036;-83
2023/01/26 15:18:18;;;;;;;0.55;0.55;;;;;;;;;;5083189;28;20017;-84
2023/01/26 15:21:01;;;;;;;0.20;0.20;;;;;;;;;;5085945;28;20036;-82
2023/01/26 15:23:26;;;;;;;0.20;0.20;;;;;;;;;;5082003;28;20016;-82
2023/01/26 15:25:52;;;;;;;1.30;1.00;;;;;;;;;;5079408;28;20369;-82
2023/01/26 15:28:24;;;;;;;0.50;0.50;;;;;;;;;;5082392;28;20476;-81
2023/01/26 15:30:52;;;;;;;0.63;0.45;;;;;;;;;;5079484;28;20040;-83
2023/01/26 15:33:36;;;;;;;0.73;0.60;;;;;;;;;;5077898;28;20048;-83
2023/01/26 15:36:01;;;;;;;0.60;0.60;;;;;;;;;;5085379;28;20028;-82
2023/01/26 15:38:27;;;;;;;1.38;0.82;;;;;;;;;;5083287;28;20089;-81
2023/01/26 15:40:52;;;;;;;1.35;1.08;;;;;;;;;;5081040;28;20107;-81
2023/01/26 15:43:19;;;;;;;2.88;1.30;;;;;;;;;;5067118;28;20392;-83
2023/01/26 15:45:53;;;;;;;0.60;0.60;;;;;;;;;;5063115;28;20094;-82
2023/01/26 15:48:19;;;;;;;0.80;0.68;;;;;;;;;;5063508;28;20021;-82
2023/01/26 15:50:48;;;;;;;0.88;0.85;;;;;;;;;;5065540;28;20021;-83
2023/01/26 15:53:14;;;;;;;0.40;0.40;;;;;;;;;;5062513;28;20032;-85